createdAt,value
2023-03-13T00:01:25.164Z,100038.81
2023-03-13T00:03:57.213Z,100048.78
2023-03-13T00:06:28.805Z,100035.13
2023-03-13T00:09:03.863Z,100051.81
2023-03-13T00:11:35.409Z,100038.38
2023-03-13T00:14:07.271Z,100036.56
2023-03-13T00:16:39.777Z,100041.63
2023-03-13T00:19:11.773Z,100036.75
2023-03-13T00:21:43.276Z,100029.41
2023-03-13T00:24:15.267Z,100020.25
2023-03-13T00:26:46.757Z,100018.22
2023-03-13T00:29:18.597Z,100024.13
2023-03-13T00:31:50.230Z,100020.25
2023-03-13T00:34:22.769Z,100021.66
2023-03-13T00:36:54.786Z,100011.91
2023-03-13T00:39:26.605Z,100015.56
2023-03-13T00:41:58.106Z,100008.47
2023-03-13T00:44:29.626Z,100014.16
2023-03-13T00:47:01.115Z,100007.03
2023-03-13T00:49:32.629Z,100016.59
2023-03-13T00:52:04.167Z,100007.44
2023-03-13T00:54:35.900Z,99999.72
2023-03-13T00:57:07.395Z,99991.59
2023-03-13T00:59:39.077Z,99993.41
2023-03-13T01:02:10.655Z,99990.97
2023-03-13T01:04:42.521Z,99991.19
2023-03-13T01:07:14.349Z,99986.91
2023-03-13T01:09:45.846Z,99984.44
2023-03-13T01:12:17.687Z,99712.06
2023-03-13T01:14:49.178Z,99982.81
2023-03-13T01:17:21.640Z,99977.91
2023-03-13T01:19:53.153Z,99984.00
2023-03-13T01:22:25.030Z,99979.53
2023-03-13T01:24:56.544Z,99976.69
2023-03-13T01:27:28.069Z,99983.00
2023-03-13T01:29:59.557Z,99983.19
2023-03-13T01:32:31.079Z,99975.69
2023-03-13T01:35:02.583Z,99979.13
2023-03-13T01:37:34.133Z,99970.81
2023-03-13T01:40:05.653Z,99967.75
2023-03-13T01:42:37.466Z,99964.06
2023-03-13T01:45:08.963Z,99975.88
2023-03-13T01:47:40.794Z,99967.34
2023-03-13T01:50:12.308Z,99962.47
2023-03-13T01:52:44.173Z,99960.44
2023-03-13T01:55:16.164Z,99959.00
2023-03-13T01:57:48.039Z,99947.63
2023-03-13T02:00:19.963Z,99940.06
2023-03-13T02:02:51.959Z,99946.59
2023-03-13T02:05:23.481Z,99943.31
2023-03-13T02:07:55.298Z,99938.84
2023-03-13T02:10:26.808Z,99936.41
2023-03-13T02:12:58.714Z,99926.25
2023-03-13T02:15:30.230Z,99923.59
2023-03-13T02:18:02.016Z,99930.72
2023-03-13T02:20:33.564Z,99925.44
2023-03-13T02:23:05.389Z,99920.94
2023-03-13T02:25:36.876Z,99912.78
2023-03-13T02:28:08.734Z,99914.00
2023-03-13T02:30:40.221Z,99908.66
2023-03-13T02:33:12.133Z,99910.28
2023-03-13T02:35:43.694Z,99907.25
2023-03-13T02:38:15.494Z,99913.75
2023-03-13T02:40:47.001Z,99900.72
2023-03-13T02:43:18.893Z,99906.03
2023-03-13T02:45:50.391Z,99894.41
2023-03-13T02:48:21.907Z,99894.41
2023-03-13T02:50:53.395Z,99894.41
2023-03-13T02:53:25.194Z,99887.50
2023-03-13T02:55:56.702Z,99878.16
2023-03-13T02:58:30.266Z,99874.88
2023-03-13T03:01:07.892Z,99868.34
2023-03-13T03:03:39.878Z,99855.91
2023-03-13T03:06:11.414Z,99858.31
2023-03-13T03:08:44.239Z,99854.63
2023-03-13T03:11:15.754Z,99854.84
2023-03-13T03:13:47.552Z,99843.66
2023-03-13T03:16:19.102Z,99844.66
2023-03-13T03:18:50.684Z,99836.09
2023-03-13T03:21:23.791Z,99841.38
2023-03-13T03:23:55.737Z,99842.41
2023-03-13T03:26:27.265Z,99846.47
2023-03-13T03:28:59.145Z,99835.06
2023-03-13T03:31:30.664Z,99835.88
2023-03-13T03:34:02.509Z,99825.50
2023-03-13T03:36:34.291Z,99825.88
2023-03-13T03:39:05.978Z,99823.44
2023-03-13T03:41:37.470Z,99818.53
2023-03-13T03:44:09.227Z,99810.00
2023-03-13T03:46:40.919Z,99809.56
2023-03-13T03:49:12.456Z,99801.03
2023-03-13T03:51:43.959Z,99796.91
2023-03-13T03:54:15.630Z,99796.47
2023-03-13T03:56:47.183Z,99795.66
2023-03-13T03:59:18.963Z,99795.44
2023-03-13T04:01:50.622Z,99784.22
2023-03-13T04:04:22.530Z,99783.78
2023-03-13T04:06:54.073Z,99777.22
2023-03-13T04:09:25.962Z,99769.28
2023-03-13T04:11:57.469Z,99772.53
2023-03-13T04:14:28.979Z,99769.06
2023-03-13T04:17:00.553Z,99755.97
2023-03-13T04:19:32.321Z,99756.38
2023-03-13T04:22:03.886Z,99759.63
2023-03-13T04:24:35.392Z,99749.84
2023-03-13T04:27:06.949Z,99751.84
2023-03-13T04:29:38.833Z,99742.19
2023-03-13T04:32:10.399Z,99742.41
2023-03-13T04:34:42.243Z,99737.13
2023-03-13T04:37:13.726Z,99736.09
2023-03-13T04:39:45.555Z,99733.44
2023-03-13T04:42:17.073Z,99727.31
2023-03-13T04:44:48.854Z,99719.38
2023-03-13T04:47:20.349Z,99722.63
2023-03-13T04:49:52.170Z,99720.78
2023-03-13T04:52:23.691Z,99712.63
2023-03-13T04:54:55.510Z,99709.81
2023-03-13T04:57:27.135Z,99703.72
2023-03-13T04:59:58.935Z,99706.13
2023-03-13T05:02:30.430Z,99692.06
2023-03-13T05:05:02.296Z,99696.34
2023-03-13T05:07:33.869Z,99681.13
2023-03-13T05:10:05.599Z,99676.03
2023-03-13T05:12:37.102Z,99658.53
2023-03-13T05:15:08.924Z,99654.63
2023-03-13T05:17:40.427Z,99648.75
2023-03-13T05:20:12.181Z,99648.16
2023-03-13T05:22:43.693Z,99653.81
2023-03-13T05:25:15.599Z,99642.19
2023-03-13T05:27:47.094Z,99643.44
2023-03-13T05:30:19.886Z,99644.25
2023-03-13T05:32:51.713Z,99637.91
2023-03-13T05:35:23.563Z,99638.94
2023-03-13T05:37:55.497Z,99623.88
2023-03-13T05:40:27.021Z,99616.59
2023-03-13T05:42:59.682Z,99605.63
2023-03-13T05:45:31.193Z,99603.94
2023-03-13T05:48:02.995Z,99600.91
2023-03-13T05:50:34.504Z,99595.16
2023-03-13T05:53:06.329Z,99588.84
2023-03-13T05:55:37.866Z,99587.00
2023-03-13T05:58:09.806Z,99579.41
2023-03-13T06:00:41.378Z,99572.41
2023-03-13T06:03:14.456Z,99576.91
2023-03-13T06:05:46.070Z,99573.00
2023-03-13T06:08:18.964Z,99570.94
2023-03-13T06:10:51.703Z,99559.06
2023-03-13T06:13:23.569Z,99562.09
2023-03-13T06:15:55.195Z,99552.06
2023-03-13T06:18:27.212Z,99553.91
2023-03-13T06:20:58.791Z,99550.81
2023-03-13T06:23:30.351Z,99543.59
2023-03-13T06:26:02.140Z,99538.50
2023-03-13T06:28:33.672Z,99529.66
2023-03-13T06:31:05.387Z,99522.97
2023-03-13T06:33:37.241Z,99519.13
2023-03-13T06:36:08.925Z,99512.97
2023-03-13T06:38:40.438Z,99500.75
2023-03-13T06:41:12.075Z,99497.88
2023-03-13T06:43:43.586Z,99485.78
2023-03-13T06:46:15.453Z,99484.06
2023-03-13T06:48:46.994Z,99467.81
2023-03-13T06:51:18.850Z,99468.72
2023-03-13T06:53:52.300Z,99459.03
2023-03-13T06:56:23.886Z,99455.59
2023-03-13T06:58:56.420Z,99455.13
2023-03-13T07:01:29.043Z,99458.94
2023-03-13T07:04:00.994Z,99455.75
2023-03-13T07:06:32.598Z,99454.00
2023-03-13T07:09:05.324Z,99460.59
2023-03-13T07:11:36.832Z,99453.19
2023-03-13T07:14:16.347Z,99444.66
2023-03-13T07:16:49.748Z,99460.34
2023-03-13T07:19:21.758Z,99441.41
2023-03-13T07:21:53.360Z,99449.50
2023-03-13T07:24:25.346Z,99439.59
2023-03-13T07:27:06.268Z,99432.09
2023-03-13T07:29:39.630Z,99434.06
2023-03-13T07:32:11.268Z,99431.53
2023-03-13T07:34:44.937Z,99433.13
2023-03-13T07:37:16.450Z,99430.13
2023-03-13T07:39:48.212Z,99411.78
2023-03-13T07:42:19.719Z,99415.94
2023-03-13T07:44:51.593Z,99408.88
2023-03-13T07:47:23.160Z,99410.97
2023-03-13T07:49:55.169Z,99409.47
2023-03-13T07:52:27.937Z,99395.06
2023-03-13T07:54:59.800Z,99386.22
2023-03-13T07:57:31.304Z,99391.63
2023-03-13T08:00:04.063Z,99381.94
2023-03-13T08:02:35.661Z,99382.50
2023-03-13T08:05:07.775Z,99375.13
2023-03-13T08:07:39.295Z,99371.06
2023-03-13T08:10:11.191Z,99370.03
2023-03-13T08:12:42.701Z,99372.13
2023-03-13T08:15:14.653Z,99354.94
2023-03-13T08:17:46.159Z,99353.06
2023-03-13T08:20:19.201Z,99354.69
2023-03-13T08:22:50.723Z,99358.25
2023-03-13T08:25:22.516Z,99356.88
2023-03-13T08:27:54.034Z,99358.00
2023-03-13T08:30:25.832Z,99335.16
2023-03-13T08:32:57.406Z,99347.06
2023-03-13T08:35:28.978Z,99349.13
2023-03-13T08:38:00.576Z,99344.41
2023-03-13T08:40:33.042Z,99340.00
2023-03-13T08:43:04.544Z,99336.75
2023-03-13T08:45:36.411Z,99321.03
2023-03-13T08:48:07.957Z,99329.44
2023-03-13T08:50:39.757Z,99322.13
2023-03-13T08:53:11.300Z,99153.38
2023-03-13T08:55:42.826Z,99308.44
2023-03-13T08:58:14.356Z,99289.63
2023-03-13T09:00:46.207Z,99291.81
2023-03-13T09:03:18.133Z,99297.06
2023-03-13T09:05:56.028Z,99296.06
2023-03-13T09:08:27.964Z,99293.66
2023-03-13T09:10:59.485Z,99279.97
2023-03-13T09:13:31.076Z,99280.34
2023-03-13T09:16:02.974Z,99278.25
2023-03-13T09:18:34.586Z,99283.91
2023-03-13T09:21:06.142Z,99279.66
2023-03-13T09:23:37.693Z,99283.25
2023-03-13T09:26:09.258Z,99276.88
2023-03-13T09:28:42.194Z,99291.28
2023-03-13T09:31:14.766Z,99287.75
2023-03-13T09:33:46.399Z,99280.78
2023-03-13T09:36:21.255Z,99294.88
2023-03-13T09:38:53.466Z,99284.31
2023-03-13T09:41:25.323Z,99285.09
2023-03-13T09:43:56.831Z,99273.00
2023-03-13T09:46:28.463Z,99280.84
2023-03-13T09:49:00.092Z,99271.91
2023-03-13T09:51:31.673Z,99268.63
2023-03-13T09:54:03.205Z,99258.31
2023-03-13T09:56:34.958Z,99257.56
2023-03-13T09:59:06.547Z,99260.59
2023-03-13T10:01:38.660Z,99255.34
2023-03-13T10:04:10.256Z,99259.88
2023-03-13T10:06:42.195Z,99259.78
2023-03-13T10:09:13.722Z,99265.66
2023-03-13T10:11:45.529Z,99265.50
2023-03-13T10:14:17.041Z,99258.66
2023-03-13T10:16:48.891Z,99268.16
2023-03-13T10:19:20.426Z,99256.66
2023-03-13T10:21:52.365Z,99259.25
2023-03-13T10:24:23.909Z,99252.34
2023-03-13T10:26:55.737Z,99244.50
2023-03-13T10:29:27.245Z,99255.75
2023-03-13T10:31:59.377Z,99243.91
2023-03-13T10:34:30.910Z,99246.59
2023-03-13T10:37:02.909Z,99253.75
2023-03-13T10:39:34.420Z,99246.41
2023-03-13T10:42:06.061Z,99233.28
2023-03-13T10:44:37.568Z,99229.56
2023-03-13T10:47:09.408Z,99229.78
2023-03-13T10:49:40.943Z,99216.28
2023-03-13T10:52:12.769Z,99217.16
2023-03-13T10:54:44.444Z,99212.69
2023-03-13T10:57:16.298Z,99214.84
2023-03-13T10:59:47.797Z,99194.66
2023-03-13T11:02:19.716Z,99210.63
2023-03-13T11:04:53.944Z,99210.91
2023-03-13T11:07:25.806Z,99207.47
2023-03-13T11:09:57.342Z,99202.97
2023-03-13T11:12:28.925Z,99184.53
2023-03-13T11:15:00.661Z,99183.50
2023-03-13T11:17:32.222Z,99179.78
2023-03-13T11:20:04.232Z,99188.84
2023-03-13T11:22:35.946Z,99191.53
2023-03-13T11:25:07.454Z,99171.22
2023-03-13T11:27:39.512Z,99161.59
2023-03-13T11:30:11.037Z,99172.69
2023-03-13T11:32:43.226Z,99156.47
2023-03-13T11:35:14.829Z,99162.59
2023-03-13T11:37:46.701Z,99163.53
2023-03-13T11:40:19.871Z,99163.75
2023-03-13T11:42:51.414Z,99159.44
2023-03-13T11:45:23.343Z,99165.00
2023-03-13T11:47:54.970Z,99166.69
2023-03-13T11:50:26.795Z,99160.25
2023-03-13T11:52:58.337Z,99154.88
2023-03-13T11:55:30.004Z,99162.19
2023-03-13T11:58:01.511Z,99163.41
2023-03-13T12:00:33.069Z,99159.72
2023-03-13T12:03:05.896Z,99162.41
2023-03-13T12:05:37.730Z,99150.09
2023-03-13T12:08:09.330Z,99143.56
2023-03-13T12:10:41.151Z,99150.03
2023-03-13T12:13:12.811Z,99145.66
2023-03-13T12:15:44.720Z,99144.78
2023-03-13T12:18:16.282Z,99154.88
2023-03-13T12:20:50.320Z,99141.31
2023-03-13T12:23:22.117Z,99148.97
2023-03-13T12:25:53.744Z,99145.91
2023-03-13T12:28:25.356Z,99133.56
2023-03-13T12:30:56.892Z,99141.56
2023-03-13T12:33:28.403Z,99133.50
2023-03-13T12:36:00.248Z,99139.63
2023-03-13T12:38:31.782Z,99120.63
2023-03-13T12:41:03.653Z,99125.88
2023-03-13T12:43:35.159Z,99098.72
2023-03-13T12:46:07.187Z,99115.16
2023-03-13T12:48:38.820Z,99111.66
2023-03-13T12:51:10.696Z,99092.06
2023-03-13T12:53:42.383Z,99094.81
2023-03-13T12:56:14.438Z,99106.31
2023-03-13T12:58:45.934Z,99106.84
2023-03-13T13:01:17.522Z,99104.53
2023-03-13T13:03:49.068Z,99078.41
2023-03-13T13:06:20.698Z,99080.56
2023-03-13T13:08:52.305Z,99082.63
2023-03-13T13:11:24.496Z,99084.16
2023-03-13T13:13:56.067Z,99081.94
2023-03-13T13:16:27.600Z,99067.50
2023-03-13T13:18:59.152Z,99070.81
2023-03-13T13:21:32.988Z,99075.34
2023-03-13T13:24:04.532Z,99081.94
2023-03-13T13:26:37.734Z,99066.59
2023-03-13T13:29:09.287Z,99075.34
2023-03-13T13:31:41.399Z,99065.66
2023-03-13T13:34:12.990Z,99064.06
2023-03-13T13:36:44.996Z,99070.31
2023-03-13T13:39:16.602Z,99056.75
2023-03-13T13:41:48.483Z,99053.06
2023-03-13T13:44:20.041Z,99039.94
2023-03-13T13:46:51.995Z,99052.78
2023-03-13T13:49:23.713Z,99038.09
2023-03-13T13:51:55.522Z,99054.63
2023-03-13T13:54:27.034Z,99060.41
2023-03-13T13:56:58.779Z,99057.81
2023-03-13T13:59:30.339Z,99034.91
2023-03-13T14:02:02.187Z,99040.19
2023-03-13T14:04:33.785Z,99043.53
2023-03-13T14:07:05.414Z,99052.03
2023-03-13T14:09:37.466Z,99044.78
2023-03-13T14:12:09.507Z,99043.28
2023-03-13T14:14:41.438Z,99053.78
2023-03-13T14:17:13.356Z,99055.63
2023-03-13T14:19:44.891Z,99045.81
2023-03-13T14:22:16.508Z,99053.75
2023-03-13T14:24:48.026Z,99060.94
2023-03-13T14:27:19.848Z,99043.09
2023-03-13T14:29:51.428Z,99047.22
2023-03-13T14:32:23.023Z,99054.03
2023-03-13T14:34:54.516Z,99038.44
2023-03-13T14:37:26.410Z,99027.66
2023-03-13T14:39:57.913Z,99038.81
2023-03-13T14:42:29.455Z,99033.31
2023-03-13T14:45:01.041Z,99027.84
2023-03-13T14:47:32.641Z,99028.34
2023-03-13T14:50:04.481Z,99034.72
2023-03-13T14:52:36.165Z,99019.28
2023-03-13T14:55:08.450Z,99024.47
2023-03-13T14:57:40.019Z,99016.09
2023-03-13T15:00:11.872Z,99021.88
2023-03-13T15:02:43.426Z,99015.41
2023-03-13T15:05:14.942Z,99013.59
2023-03-13T15:07:46.469Z,99006.44
2023-03-13T15:10:18.018Z,98993.19
2023-03-13T15:12:49.904Z,99010.53
2023-03-13T15:15:21.410Z,98999.06
2023-03-13T15:17:53.285Z,98995.69
2023-03-13T15:20:24.827Z,98999.75
2023-03-13T15:22:56.528Z,98990.81
2023-03-13T15:25:28.086Z,98994.88
2023-03-13T15:27:59.817Z,98979.63
2023-03-13T15:30:31.352Z,98986.31
2023-03-13T15:33:03.242Z,98979.34
2023-03-13T15:35:35.450Z,98976.53
2023-03-13T15:38:07.228Z,98973.06
2023-03-13T15:40:38.854Z,98978.63
2023-03-13T15:43:10.720Z,98971.94
2023-03-13T15:45:42.250Z,98965.47
2023-03-13T15:48:14.079Z,98964.38
2023-03-13T15:50:45.595Z,98969.53
2023-03-13T15:53:17.498Z,98956.31
2023-03-13T15:55:49.363Z,98942.81
2023-03-13T15:58:20.905Z,98942.91
2023-03-13T16:00:52.538Z,98934.25
2023-03-13T16:03:25.327Z,98945.16
2023-03-13T16:05:56.911Z,98942.38
2023-03-13T16:08:36.438Z,98940.38
2023-03-13T16:11:08.656Z,98929.81
2023-03-13T16:13:40.565Z,98920.63
2023-03-13T16:16:12.113Z,98916.34
2023-03-13T16:18:43.936Z,98911.63
2023-03-13T16:21:15.453Z,98904.69
2023-03-13T16:23:47.432Z,98899.69
2023-03-13T16:26:19.032Z,98892.06
2023-03-13T16:28:51.117Z,98882.59
2023-03-13T16:31:22.736Z,98883.59
2023-03-13T16:33:54.802Z,98882.66
2023-03-13T16:36:28.107Z,98888.66
2023-03-13T16:39:00.015Z,98887.09
2023-03-13T16:41:32.704Z,98886.28
2023-03-13T16:44:04.389Z,98880.72
2023-03-13T16:46:35.962Z,98871.66
2023-03-13T16:49:07.559Z,98867.16
2023-03-13T16:51:39.077Z,98857.22
2023-03-13T16:54:12.928Z,98857.59
2023-03-13T16:56:44.743Z,98858.47
2023-03-13T16:59:16.729Z,98854.22
2023-03-13T17:01:48.472Z,98846.53
2023-03-13T17:04:20.020Z,98850.84
2023-03-13T17:06:52.981Z,98844.19
2023-03-13T17:09:24.485Z,98846.63
2023-03-13T17:11:56.265Z,98856.63
2023-03-13T17:14:27.783Z,98858.22
2023-03-13T17:16:59.868Z,98852.44
2023-03-13T17:19:32.271Z,98850.41
2023-03-13T17:22:04.215Z,98843.44
2023-03-13T17:24:35.729Z,98856.34
2023-03-13T17:27:07.388Z,98859.09
2023-03-13T17:29:38.885Z,98859.88
2023-03-13T17:32:10.691Z,98854.28
2023-03-13T17:34:42.256Z,98856.94
2023-03-13T17:37:14.142Z,98855.34
2023-03-13T17:39:45.736Z,98865.28
2023-03-13T17:42:17.608Z,98856.16
2023-03-13T17:44:49.123Z,98862.56
2023-03-13T17:47:20.694Z,98855.66
2023-03-13T17:49:52.227Z,98863.19
2023-03-13T17:52:24.090Z,98854.84
2023-03-13T17:54:55.609Z,98852.25
2023-03-13T17:57:27.140Z,98855.78
2023-03-13T17:59:58.675Z,98860.34
2023-03-13T18:02:30.198Z,98855.22
2023-03-13T18:05:01.764Z,98835.94
2023-03-13T18:07:33.476Z,98837.59
2023-03-13T18:10:05.100Z,98841.09
2023-03-13T18:12:37.101Z,98846.66
2023-03-13T18:15:08.668Z,98732.88
2023-03-13T18:17:40.669Z,98857.53
2023-03-13T18:20:12.214Z,98835.50
2023-03-13T18:22:44.205Z,98830.16
2023-03-13T18:25:15.762Z,98718.81
2023-03-13T18:27:47.835Z,98825.84
2023-03-13T18:30:19.368Z,98822.88
2023-03-13T18:32:51.294Z,98823.97
2023-03-13T18:35:22.828Z,98823.16
2023-03-13T18:37:54.623Z,98830.41
2023-03-13T18:40:26.185Z,98822.38
2023-03-13T18:42:58.141Z,98517.31
2023-03-13T18:45:29.734Z,98818.59
2023-03-13T18:48:01.719Z,98818.34
2023-03-13T18:50:33.207Z,98801.78
2023-03-13T18:53:04.768Z,98808.00
2023-03-13T18:55:36.300Z,98821.69
2023-03-13T18:58:08.206Z,98823.06
2023-03-13T19:00:39.833Z,98818.78
2023-03-13T19:03:11.645Z,98815.38
2023-03-13T19:05:43.128Z,98823.41
2023-03-13T19:08:14.758Z,98803.13
2023-03-13T19:10:46.341Z,98800.47
2023-03-13T19:13:18.079Z,98806.47
2023-03-13T19:15:49.579Z,98795.16
2023-03-13T19:18:21.188Z,98793.06
2023-03-13T19:20:52.728Z,98790.38
2023-03-13T19:23:24.926Z,98781.28
2023-03-13T19:25:56.920Z,98773.31
2023-03-13T19:28:28.492Z,98762.63
2023-03-13T19:30:59.977Z,98769.94
2023-03-13T19:33:31.475Z,98766.97
2023-03-13T19:36:03.062Z,98760.03
2023-03-13T19:38:34.609Z,98760.88
2023-03-13T19:41:06.107Z,98758.44
2023-03-13T19:43:37.830Z,98757.63
2023-03-13T19:46:09.373Z,98750.97
2023-03-13T19:48:41.353Z,98754.81
2023-03-13T19:51:12.954Z,98747.06
2023-03-13T19:53:44.824Z,98761.00
2023-03-13T19:56:17.223Z,98765.63
2023-03-13T19:58:49.106Z,98767.28
2023-03-13T20:01:20.708Z,98762.50
2023-03-13T20:03:52.711Z,98757.16
2023-03-13T20:06:24.309Z,98753.94
2023-03-13T20:08:56.026Z,98756.63
2023-03-13T20:11:27.537Z,98759.28
2023-03-13T20:13:59.513Z,98746.19
2023-03-13T20:16:33.630Z,98752.34
2023-03-13T20:19:06.533Z,98740.13
2023-03-13T20:21:41.111Z,98745.53
2023-03-13T20:24:12.660Z,98737.78
2023-03-13T20:26:44.199Z,98724.13
2023-03-13T20:29:16.080Z,98561.03
2023-03-13T20:31:47.614Z,98730.50
2023-03-13T20:34:19.442Z,98720.88
2023-03-13T20:36:53.464Z,98717.09
2023-03-13T20:39:25.543Z,98718.19
2023-03-13T20:41:57.441Z,98712.84
2023-03-13T20:44:29.129Z,98713.84
2023-03-13T20:47:00.711Z,98714.88
2023-03-13T20:49:32.256Z,98720.81
2023-03-13T20:52:04.562Z,98712.19
2023-03-13T20:54:36.394Z,98716.25
2023-03-13T20:57:08.705Z,98727.25
2023-03-13T20:59:41.501Z,98728.09
2023-03-13T21:02:13.016Z,98714.44
2023-03-13T21:04:44.564Z,98708.84
2023-03-13T21:07:16.120Z,98706.47
2023-03-13T21:09:48.123Z,98719.84
2023-03-13T21:12:19.667Z,98721.72
2023-03-13T21:14:53.780Z,98720.44
2023-03-13T21:17:25.786Z,98712.97
2023-03-13T21:19:57.595Z,98716.16
2023-03-13T21:22:30.175Z,98716.09
2023-03-13T21:25:02.729Z,98716.09
2023-03-13T21:27:35.468Z,98716.59
2023-03-13T21:30:07.231Z,98720.94
2023-03-13T21:32:38.752Z,98730.84
2023-03-13T21:35:10.673Z,98740.91
2023-03-13T21:37:42.793Z,98729.41
2023-03-13T21:40:14.412Z,98745.97
2023-03-13T21:42:45.910Z,98739.81
2023-03-13T21:45:17.724Z,98733.44
2023-03-13T21:47:49.284Z,98721.94
2023-03-13T21:50:21.108Z,98707.84
2023-03-13T21:52:52.603Z,98718.53
2023-03-13T21:55:24.118Z,98718.81
2023-03-13T21:57:55.830Z,98705.47
2023-03-13T22:00:27.507Z,98692.91
2023-03-13T22:02:59.018Z,98698.53
2023-03-13T22:05:30.604Z,98696.94
2023-03-13T22:08:02.086Z,98698.09
2023-03-13T22:10:33.603Z,98693.75
2023-03-13T22:13:05.173Z,98692.66
2023-03-13T22:15:37.045Z,98708.72
2023-03-13T22:18:08.545Z,98699.97
2023-03-13T22:20:40.591Z,98705.53
2023-03-13T22:23:12.120Z,98701.78
2023-03-13T22:25:43.998Z,98698.59
2023-03-13T22:28:15.493Z,98696.22
2023-03-13T22:30:47.295Z,98690.84
2023-03-13T22:33:18.815Z,98683.63
2023-03-13T22:35:52.728Z,98668.94
2023-03-13T22:38:24.337Z,98677.19
2023-03-13T22:40:56.142Z,98690.06
2023-03-13T22:43:27.789Z,98690.06
2023-03-13T22:45:59.537Z,98685.50
2023-03-13T22:48:31.524Z,98676.97
2023-03-13T22:51:03.396Z,98683.91
2023-03-13T22:53:34.970Z,98682.31
2023-03-13T22:56:06.671Z,98676.47
2023-03-13T22:58:38.174Z,98670.06
2023-03-13T23:01:09.929Z,98678.44
2023-03-13T23:03:41.481Z,98684.34
2023-03-13T23:06:13.404Z,98672.13
2023-03-13T23:08:44.926Z,98668.66
2023-03-13T23:11:16.756Z,98677.00
2023-03-13T23:13:48.822Z,98688.28
2023-03-13T23:16:20.337Z,98687.81
2023-03-13T23:18:52.437Z,98668.09
2023-03-13T23:21:23.971Z,98672.94
2023-03-13T23:23:55.820Z,98659.09
2023-03-13T23:26:27.370Z,98655.41
2023-03-13T23:28:59.045Z,98651.19
2023-03-13T23:31:30.548Z,98642.13
2023-03-13T23:34:02.296Z,98649.41
2023-03-13T23:36:33.804Z,98648.06
2023-03-13T23:39:05.700Z,98651.81
2023-03-13T23:41:37.478Z,98652.16
2023-03-13T23:44:09.176Z,98646.28
2023-03-13T23:46:40.701Z,98643.09
2023-03-13T23:49:15.505Z,98635.66
2023-03-13T23:51:47.000Z,98640.75
2023-03-13T23:54:18.989Z,98640.50
2023-03-13T23:56:50.495Z,98646.41
2023-03-13T23:59:22.345Z,98648.56
